createdAt,value
2023-12-15T00:02:21.445Z,5.10
2023-12-15T00:04:51.056Z,6.45
2023-12-15T00:07:19.464Z,8.20
2023-12-15T00:09:47.871Z,6.55
2023-12-15T00:12:16.776Z,5.82
2023-12-15T00:14:45.341Z,4.63
2023-12-15T00:17:13.825Z,5.85
2023-12-15T00:19:42.006Z,6.55
2023-12-15T00:22:11.925Z,5.57
2023-12-15T00:24:40.118Z,5.78
2023-12-15T00:27:08.275Z,6.05
2023-12-15T00:29:36.743Z,5.45
2023-12-15T00:32:05.501Z,5.45
2023-12-15T00:34:33.823Z,7.80
2023-12-15T00:37:02.016Z,7.07
2023-12-15T00:39:32.673Z,5.25
2023-12-15T00:42:00.949Z,4.82
2023-12-15T00:44:29.276Z,6.55
2023-12-15T00:46:57.717Z,6.03
2023-12-15T00:49:26.742Z,7.40
2023-12-15T00:51:55.258Z,6.32
2023-12-15T00:54:23.471Z,4.28
2023-12-15T00:56:53.101Z,5.55
2023-12-15T00:59:21.339Z,5.43
2023-12-15T01:01:50.019Z,4.18
2023-12-15T01:04:18.830Z,4.57
2023-12-15T01:06:47.253Z,4.85
2023-12-15T01:09:15.411Z,3.88
2023-12-15T01:11:43.733Z,3.95
2023-12-15T01:14:13.301Z,4.25
2023-12-15T01:16:46.452Z,5.50
2023-12-15T01:19:14.949Z,3.28
2023-12-15T01:21:43.268Z,3.55
2023-12-15T01:24:12.069Z,4.25
2023-12-15T01:26:40.478Z,5.30
2023-12-15T01:29:08.898Z,4.03
2023-12-15T01:31:38.624Z,7.13
2023-12-15T01:34:06.893Z,6.03
2023-12-15T01:36:35.848Z,4.03
2023-12-15T01:39:04.472Z,4.95
2023-12-15T01:41:33.124Z,3.90
2023-12-15T01:44:01.515Z,3.97
2023-12-15T01:46:29.740Z,5.10
2023-12-15T01:48:59.563Z,5.47
2023-12-15T01:51:28.129Z,2.88
2023-12-15T01:53:56.352Z,4.18
2023-12-15T01:56:25.002Z,2.58
2023-12-15T01:58:53.479Z,2.75
2023-12-15T02:01:21.807Z,3.55
2023-12-15T02:03:50.450Z,16.60
2023-12-15T02:06:20.136Z,5.28
2023-12-15T02:08:49.079Z,5.45
2023-12-15T02:11:18.694Z,3.20
2023-12-15T02:13:46.981Z,3.22
2023-12-15T02:16:15.349Z,4.95
2023-12-15T02:18:43.574Z,5.00
2023-12-15T02:21:11.846Z,2.63
2023-12-15T02:23:41.411Z,3.72
2023-12-15T02:26:09.765Z,3.00
2023-12-15T02:28:38.085Z,2.92
2023-12-15T02:31:06.815Z,3.55
2023-12-15T02:33:35.275Z,3.95
2023-12-15T02:36:03.893Z,5.85
2023-12-15T02:38:32.114Z,3.15
2023-12-15T02:41:01.671Z,4.28
2023-12-15T02:43:29.987Z,3.22
2023-12-15T02:45:58.476Z,2.85
2023-12-15T02:48:26.891Z,4.47
2023-12-15T02:50:55.206Z,2.55
2023-12-15T02:53:23.479Z,2.60
2023-12-15T02:55:51.786Z,3.08
2023-12-15T02:58:21.805Z,2.95
2023-12-15T03:00:50.065Z,2.45
2023-12-15T03:03:18.504Z,2.50
2023-12-15T03:05:47.078Z,2.65
2023-12-15T03:08:15.451Z,4.45
2023-12-15T03:10:43.792Z,3.58
2023-12-15T03:13:12.007Z,2.92
2023-12-15T03:15:41.535Z,3.47
2023-12-15T03:18:10.324Z,6.93
2023-12-15T03:20:38.562Z,3.75
2023-12-15T03:23:06.761Z,4.18
2023-12-15T03:25:34.952Z,2.83
2023-12-15T03:28:03.172Z,3.30
2023-12-15T03:30:31.387Z,3.10
2023-12-15T03:33:01.035Z,3.10
2023-12-15T03:35:29.363Z,3.00
2023-12-15T03:37:57.588Z,2.60
2023-12-15T03:40:25.882Z,2.92
2023-12-15T03:42:54.032Z,2.63
2023-12-15T03:45:22.636Z,2.78
2023-12-15T03:47:50.990Z,3.00
2023-12-15T03:50:20.759Z,3.38
2023-12-15T03:52:49.293Z,3.33
2023-12-15T03:55:18.311Z,2.97
2023-12-15T03:57:46.464Z,2.85
2023-12-15T04:00:15.669Z,3.42
2023-12-15T04:02:44.308Z,3.63
2023-12-15T04:05:13.441Z,3.30
2023-12-15T04:07:43.212Z,3.10
2023-12-15T04:10:11.989Z,2.53
2023-12-15T04:12:40.162Z,3.38
2023-12-15T04:15:10.092Z,3.30
2023-12-15T04:17:38.825Z,3.40
2023-12-15T04:20:10.425Z,4.50
2023-12-15T04:22:38.675Z,3.00
2023-12-15T04:25:09.455Z,2.90
2023-12-15T04:27:40.321Z,3.10
2023-12-15T04:30:10.144Z,2.67
2023-12-15T04:32:38.798Z,5.80
2023-12-15T04:35:08.196Z,3.03
2023-12-15T04:37:36.855Z,2.72
2023-12-15T04:40:04.717Z,3.00
2023-12-15T04:42:34.309Z,2.55
2023-12-15T04:45:02.518Z,4.55
2023-12-15T04:47:30.768Z,3.30
2023-12-15T04:49:59.007Z,3.30
2023-12-15T04:52:27.758Z,4.57
2023-12-15T04:54:55.936Z,2.53
2023-12-15T04:57:24.247Z,5.30
2023-12-15T04:59:53.876Z,3.00
2023-12-15T05:02:22.416Z,2.75
2023-12-15T05:04:50.685Z,3.17
2023-12-15T05:07:19.487Z,2.72
2023-12-15T05:09:49.162Z,2.78
2023-12-15T05:12:18.121Z,3.33
2023-12-15T05:14:46.399Z,3.03
2023-12-15T05:17:16.191Z,3.58
2023-12-15T05:19:44.668Z,2.58
2023-12-15T05:22:13.070Z,3.53
2023-12-15T05:24:41.278Z,3.20
2023-12-15T05:27:09.787Z,4.10
2023-12-15T05:29:45.050Z,2.85
2023-12-15T05:32:13.479Z,3.28
2023-12-15T05:34:43.641Z,3.17
2023-12-15T05:37:11.946Z,2.95
2023-12-15T05:39:43.356Z,3.67
2023-12-15T05:42:11.896Z,3.55
2023-12-15T05:44:41.815Z,3.85
2023-12-15T05:47:11.324Z,3.17
2023-12-15T05:49:42.579Z,2.60
2023-12-15T05:52:11.306Z,2.78
2023-12-15T05:54:40.537Z,2.78
2023-12-15T05:57:11.117Z,3.28
2023-12-15T05:59:41.444Z,3.03
2023-12-15T06:02:10.754Z,5.80
2023-12-15T06:04:39.062Z,3.35
2023-12-15T06:07:08.902Z,3.08
2023-12-15T06:09:38.710Z,3.22
2023-12-15T06:12:08.984Z,2.90
2023-12-15T06:14:38.030Z,3.63
2023-12-15T06:17:07.775Z,4.80
2023-12-15T06:19:36.737Z,4.18
2023-12-15T06:22:05.044Z,3.90
2023-12-15T06:24:33.612Z,5.00
2023-12-15T06:27:02.247Z,3.38
2023-12-15T06:29:30.556Z,3.88
2023-12-15T06:32:01.314Z,3.50
2023-12-15T06:34:30.356Z,2.90
2023-12-15T06:36:58.664Z,4.57
2023-12-15T06:39:26.952Z,4.60
2023-12-15T06:41:58.518Z,2.70
2023-12-15T06:44:27.189Z,5.40
2023-12-15T06:46:55.499Z,4.32
2023-12-15T06:49:31.384Z,8.45
2023-12-15T06:51:59.762Z,22.83
2023-12-15T06:54:27.938Z,26.00
2023-12-15T06:56:57.621Z,19.45
2023-12-15T06:59:26.237Z,23.35
2023-12-15T07:01:54.664Z,24.58
2023-12-15T07:04:23.125Z,33.88
2023-12-15T07:06:51.541Z,23.30
2023-12-15T07:09:20.322Z,78.18
2023-12-15T07:11:48.821Z,59.85
2023-12-15T07:14:18.703Z,50.15
2023-12-15T07:16:46.886Z,48.78
2023-12-15T07:19:15.127Z,40.55
2023-12-15T07:21:43.978Z,50.65
2023-12-15T07:24:12.158Z,42.42
2023-12-15T07:26:40.419Z,37.25
2023-12-15T07:29:08.755Z,38.63
2023-12-15T07:31:38.433Z,32.30
2023-12-15T07:34:06.776Z,40.15
2023-12-15T07:36:35.098Z,40.85
2023-12-15T07:39:04.013Z,37.20
2023-12-15T07:41:32.536Z,40.38
2023-12-15T07:44:00.855Z,31.42
2023-12-15T07:46:29.097Z,39.75
2023-12-15T07:48:58.746Z,26.75
2023-12-15T07:51:27.000Z,33.50
2023-12-15T07:53:55.225Z,35.20
2023-12-15T07:56:24.427Z,33.70
2023-12-15T07:58:52.915Z,27.98
2023-12-15T08:01:21.200Z,29.75
2023-12-15T08:03:49.873Z,34.97
2023-12-15T08:06:19.596Z,26.42
2023-12-15T08:08:48.413Z,31.40
2023-12-15T08:11:17.125Z,30.80
2023-12-15T08:13:45.383Z,31.65
2023-12-15T08:16:14.785Z,24.48
2023-12-15T08:18:44.867Z,25.42
2023-12-15T08:21:13.640Z,30.15
2023-12-15T08:23:43.379Z,26.70
2023-12-15T08:26:20.282Z,21.90
2023-12-15T08:28:48.644Z,24.00
2023-12-15T08:31:17.077Z,25.90
2023-12-15T08:33:45.877Z,27.00
2023-12-15T08:36:14.088Z,21.63
2023-12-15T08:38:43.749Z,20.92
2023-12-15T08:41:12.283Z,25.33
2023-12-15T08:43:41.115Z,22.30
2023-12-15T08:46:09.638Z,21.48
2023-12-15T08:48:38.369Z,50.60
2023-12-15T08:51:07.152Z,42.22
2023-12-15T08:53:38.022Z,70.88
2023-12-15T08:56:08.469Z,65.63
2023-12-15T08:58:36.900Z,82.07
2023-12-15T09:01:05.249Z,92.53
2023-12-15T09:03:34.087Z,96.03
2023-12-15T09:08:33.880Z,87.10
2023-12-15T09:11:02.353Z,85.70
2023-12-15T09:13:30.996Z,65.72
2023-12-15T09:15:59.260Z,81.93
2023-12-15T09:18:27.813Z,74.65
2023-12-15T09:20:57.385Z,67.65
2023-12-15T09:23:25.737Z,72.82
2023-12-15T09:25:54.769Z,74.80
2023-12-15T09:28:23.105Z,76.70
2023-12-15T09:30:53.159Z,54.75
2023-12-15T09:33:21.626Z,57.35
2023-12-15T09:35:54.621Z,58.50
2023-12-15T09:38:23.301Z,53.78
2023-12-15T09:40:53.314Z,50.13
2023-12-15T09:43:21.556Z,50.00
2023-12-15T09:45:49.764Z,51.72
2023-12-15T09:48:19.824Z,42.20
2023-12-15T09:50:51.829Z,44.72
2023-12-15T09:53:20.619Z,38.25
2023-12-15T09:55:48.884Z,46.63
2023-12-15T09:58:17.090Z,42.13
2023-12-15T10:00:45.366Z,42.75
2023-12-15T10:03:13.627Z,41.63
2023-12-15T10:05:43.438Z,42.90
2023-12-15T10:08:11.842Z,35.22
2023-12-15T10:10:40.416Z,34.40
2023-12-15T10:13:08.645Z,35.38
2023-12-15T10:15:36.848Z,34.05
2023-12-15T10:18:06.031Z,34.80
2023-12-15T10:20:34.582Z,33.17
2023-12-15T10:23:04.897Z,26.20
2023-12-15T10:25:34.087Z,36.42
2023-12-15T10:28:03.361Z,30.45
2023-12-15T10:30:31.932Z,24.25
2023-12-15T10:32:59.594Z,28.55
2023-12-15T10:35:29.436Z,26.45
2023-12-15T10:37:57.984Z,23.15
2023-12-15T10:40:27.590Z,28.17
2023-12-15T10:42:55.985Z,26.90
2023-12-15T10:45:25.229Z,29.83
2023-12-15T10:47:53.609Z,23.42
2023-12-15T10:50:21.953Z,18.77
2023-12-15T10:52:50.174Z,29.20
2023-12-15T10:55:20.880Z,22.65
2023-12-15T10:57:50.442Z,23.92
2023-12-15T11:00:19.761Z,22.15
2023-12-15T11:02:48.248Z,22.50
2023-12-15T11:05:18.896Z,21.30
2023-12-15T11:07:51.599Z,22.92
2023-12-15T11:10:19.829Z,24.67
2023-12-15T11:12:48.751Z,20.67
2023-12-15T11:15:20.227Z,23.50
2023-12-15T11:17:49.884Z,18.88
2023-12-15T11:20:43.068Z,19.98
2023-12-15T11:23:13.182Z,23.02
2023-12-15T11:25:54.726Z,17.17
2023-12-15T11:28:22.993Z,18.83
2023-12-15T11:30:54.394Z,18.20
2023-12-15T11:33:45.240Z,15.70
2023-12-15T11:36:15.379Z,18.58
2023-12-15T11:38:44.011Z,17.85
2023-12-15T11:41:12.704Z,17.63
2023-12-15T11:43:44.604Z,16.75
2023-12-15T11:46:14.400Z,19.45
2023-12-15T11:48:43.321Z,17.77
2023-12-15T11:51:11.711Z,16.58
2023-12-15T11:53:42.512Z,18.33
2023-12-15T11:56:12.912Z,18.25
2023-12-15T11:58:41.457Z,16.60
2023-12-15T12:01:11.032Z,14.88
2023-12-15T12:03:40.649Z,15.68
2023-12-15T12:06:10.078Z,18.40
2023-12-15T12:08:38.699Z,15.57
2023-12-15T12:11:10.123Z,15.00
2023-12-15T12:13:41.133Z,14.95
2023-12-15T12:16:09.633Z,14.35
2023-12-15T12:18:37.952Z,14.05
2023-12-15T12:21:08.557Z,15.10
2023-12-15T12:23:43.341Z,19.77
2023-12-15T12:26:15.684Z,12.65
2023-12-15T12:28:46.410Z,12.50
2023-12-15T12:31:16.461Z,13.73
2023-12-15T12:33:44.951Z,12.82
2023-12-15T12:36:16.814Z,12.43
2023-12-15T12:38:46.264Z,11.38
2023-12-15T12:41:14.680Z,13.25
2023-12-15T12:43:43.564Z,13.35
2023-12-15T12:46:12.820Z,11.52
2023-12-15T12:48:41.836Z,11.77
2023-12-15T12:51:10.439Z,12.90
2023-12-15T12:53:40.185Z,11.70
2023-12-15T12:56:12.091Z,11.45
2023-12-15T12:58:41.017Z,11.48
2023-12-15T13:01:10.207Z,13.38
2023-12-15T13:03:40.045Z,12.30
2023-12-15T13:06:10.178Z,12.13
2023-12-15T13:08:41.523Z,12.88
2023-12-15T13:11:10.008Z,10.73
2023-12-15T13:13:38.478Z,10.50
2023-12-15T13:16:07.904Z,12.27
2023-12-15T13:18:36.918Z,11.63
2023-12-15T13:21:05.816Z,12.63
2023-12-15T13:23:34.132Z,13.55
2023-12-15T13:26:04.060Z,10.90
2023-12-15T13:28:36.515Z,10.77
2023-12-15T13:31:06.204Z,9.45
2023-12-15T13:33:34.583Z,9.77
2023-12-15T13:36:10.674Z,12.02
2023-12-15T13:38:44.341Z,11.00
2023-12-15T13:41:14.105Z,12.38
2023-12-15T13:43:43.779Z,10.25
2023-12-15T13:46:12.187Z,11.27
2023-12-15T13:48:40.925Z,10.43
2023-12-15T13:51:10.431Z,9.90
2023-12-15T13:53:39.192Z,12.35
2023-12-15T13:56:08.239Z,9.32
2023-12-15T13:58:37.801Z,10.95
2023-12-15T14:01:06.098Z,9.57
2023-12-15T14:03:34.497Z,11.07
2023-12-15T14:06:03.199Z,9.65
2023-12-15T14:08:31.701Z,9.93
2023-12-15T14:11:02.605Z,10.70
2023-12-15T14:13:32.779Z,10.05
2023-12-15T14:16:08.587Z,10.43
2023-12-15T14:18:39.649Z,9.07
2023-12-15T14:21:08.318Z,8.80
2023-12-15T14:23:36.582Z,9.57
2023-12-15T14:26:05.879Z,9.70
2023-12-15T14:28:34.100Z,8.50
2023-12-15T14:31:04.380Z,8.65
2023-12-15T14:33:32.909Z,9.80
2023-12-15T14:36:01.238Z,9.70
2023-12-15T14:38:29.425Z,10.65
2023-12-15T14:41:00.163Z,10.68
2023-12-15T14:43:29.844Z,9.13
2023-12-15T14:45:58.437Z,11.05
2023-12-15T14:48:28.143Z,11.02
2023-12-15T14:50:56.459Z,9.23
2023-12-15T14:53:25.304Z,9.25
2023-12-15T14:55:53.599Z,9.32
2023-12-15T14:58:21.781Z,8.50
2023-12-15T15:00:50.101Z,8.40
2023-12-15T15:03:18.411Z,9.50
2023-12-15T15:05:48.095Z,8.38
2023-12-15T15:08:16.317Z,9.70
2023-12-15T15:10:44.869Z,8.57
2023-12-15T15:13:13.624Z,9.13
2023-12-15T15:15:41.834Z,7.70
2023-12-15T15:18:10.176Z,13.15
2023-12-15T15:20:39.232Z,9.32
2023-12-15T15:23:09.012Z,10.45
2023-12-15T15:25:37.290Z,18.88
2023-12-15T15:28:05.460Z,11.05
2023-12-15T15:30:33.983Z,9.95
2023-12-15T15:33:02.287Z,8.68
2023-12-15T15:35:31.560Z,8.23
2023-12-15T15:38:00.575Z,8.43
2023-12-15T15:40:30.674Z,9.48
2023-12-15T15:42:58.866Z,15.00
2023-12-15T15:45:27.197Z,8.55
2023-12-15T15:47:56.395Z,11.70
2023-12-15T15:50:25.065Z,8.15
2023-12-15T15:52:53.575Z,8.98
2023-12-15T15:55:21.833Z,9.32
2023-12-15T15:57:51.633Z,6.95
2023-12-15T16:00:21.185Z,8.20
2023-12-15T16:02:49.617Z,7.40
2023-12-15T16:05:18.191Z,7.80
2023-12-15T16:07:46.682Z,8.38
2023-12-15T16:10:15.608Z,8.65
2023-12-15T16:12:44.635Z,14.18
2023-12-15T16:15:14.641Z,12.40
2023-12-15T16:17:43.495Z,9.80
2023-12-15T16:20:12.557Z,7.60
2023-12-15T16:22:41.264Z,11.93
2023-12-15T16:25:10.206Z,8.70
2023-12-15T16:27:39.136Z,7.00
2023-12-15T16:30:08.943Z,7.32
2023-12-15T16:32:43.572Z,6.80
2023-12-15T16:35:12.276Z,7.47
2023-12-15T16:37:41.040Z,7.65
2023-12-15T16:40:10.875Z,33.55
2023-12-15T16:42:43.635Z,11.27
2023-12-15T16:45:12.457Z,12.95
2023-12-15T16:47:43.301Z,8.95
2023-12-15T16:50:11.882Z,9.57
2023-12-15T16:52:40.392Z,8.73
2023-12-15T16:55:09.438Z,9.82
2023-12-15T16:57:38.300Z,9.23
2023-12-15T17:00:08.246Z,9.88
2023-12-15T17:02:36.447Z,9.10
2023-12-15T17:05:07.076Z,11.45
2023-12-15T17:07:35.394Z,11.05
2023-12-15T17:10:03.925Z,7.28
2023-12-15T17:12:32.212Z,7.38
2023-12-15T17:15:02.057Z,9.05
2023-12-15T17:17:30.246Z,9.38
2023-12-15T17:19:58.993Z,7.00
2023-12-15T17:22:30.688Z,6.25
2023-12-15T17:24:59.086Z,7.93
2023-12-15T17:27:27.420Z,7.32
2023-12-15T17:29:56.034Z,7.90
2023-12-15T17:32:24.279Z,8.20
2023-12-15T17:34:52.516Z,9.23
2023-12-15T17:37:22.818Z,7.68
2023-12-15T17:39:52.532Z,6.65
2023-12-15T17:42:20.828Z,12.10
2023-12-15T17:44:49.089Z,11.13
2023-12-15T17:47:17.379Z,10.10
2023-12-15T17:49:45.699Z,8.35
2023-12-15T17:52:14.024Z,9.05
2023-12-15T17:54:42.458Z,8.90
2023-12-15T17:57:12.117Z,9.30
2023-12-15T17:59:40.383Z,8.18
2023-12-15T18:02:08.941Z,9.45
2023-12-15T18:04:37.968Z,6.47
2023-12-15T18:07:06.392Z,7.20
2023-12-15T18:09:34.825Z,6.75
2023-12-15T18:12:03.798Z,6.28
2023-12-15T18:14:33.647Z,8.52
2023-12-15T18:17:01.926Z,6.88
2023-12-15T18:19:30.259Z,6.80
2023-12-15T18:21:58.624Z,9.10
2023-12-15T18:24:26.836Z,8.27
2023-12-15T18:26:55.094Z,6.63
2023-12-15T18:29:26.088Z,7.93
2023-12-15T18:31:55.910Z,7.85
2023-12-15T18:34:24.198Z,6.97
2023-12-15T18:36:52.704Z,8.02
2023-12-15T18:39:20.971Z,5.07
2023-12-15T18:41:49.374Z,5.97
2023-12-15T18:44:17.728Z,9.07
2023-12-15T18:46:46.993Z,6.55
2023-12-15T18:49:16.996Z,6.85
2023-12-15T18:51:45.350Z,6.10
2023-12-15T18:54:14.792Z,7.72
2023-12-15T18:56:44.633Z,7.72
2023-12-15T18:59:13.233Z,7.50
2023-12-15T19:01:42.655Z,8.45
2023-12-15T19:04:11.935Z,7.43
2023-12-15T19:06:41.871Z,8.02
2023-12-15T19:09:11.881Z,7.57
2023-12-15T19:11:40.409Z,6.80
2023-12-15T19:14:09.190Z,7.88
2023-12-15T19:16:37.526Z,10.23
2023-12-15T19:19:06.489Z,10.60
2023-12-15T19:21:34.774Z,6.65
2023-12-15T19:24:06.384Z,7.97
2023-12-15T19:26:34.591Z,10.57
2023-12-15T19:29:02.828Z,7.68
2023-12-15T19:31:31.054Z,8.80
2023-12-15T19:33:59.781Z,7.60
2023-12-15T19:36:28.188Z,5.75
2023-12-15T19:38:56.492Z,6.78
2023-12-15T19:41:27.586Z,6.82
2023-12-15T19:43:56.301Z,10.65
2023-12-15T19:46:24.789Z,7.43
2023-12-15T19:48:53.967Z,6.25
2023-12-15T19:51:22.638Z,5.82
2023-12-15T19:53:51.092Z,7.57
2023-12-15T19:56:23.876Z,10.73
2023-12-15T19:58:53.658Z,8.13
2023-12-15T20:01:29.269Z,6.25
2023-12-15T20:03:57.873Z,5.97
2023-12-15T20:06:26.948Z,7.13
2023-12-15T20:08:55.370Z,7.65
2023-12-15T20:11:23.733Z,10.75
2023-12-15T20:13:54.090Z,7.25
2023-12-15T20:16:22.709Z,6.95
2023-12-15T20:18:52.533Z,9.00
2023-12-15T20:21:20.877Z,6.88
2023-12-15T20:23:49.223Z,5.30
2023-12-15T20:26:17.418Z,6.97
2023-12-15T20:28:45.858Z,7.05
2023-12-15T20:31:16.064Z,5.60
2023-12-15T20:33:44.721Z,4.97
2023-12-15T20:36:13.453Z,7.32
2023-12-15T20:38:41.888Z,7.13
2023-12-15T20:41:10.468Z,7.20
2023-12-15T20:43:40.392Z,5.93
2023-12-15T20:46:10.252Z,5.45
2023-12-15T20:48:39.975Z,6.93
2023-12-15T20:51:09.942Z,6.22
2023-12-15T20:53:38.321Z,7.00
2023-12-15T20:56:07.216Z,5.25
2023-12-15T20:58:35.477Z,7.90
2023-12-15T21:01:03.949Z,5.22
2023-12-15T21:03:32.697Z,5.97
2023-12-15T21:06:02.390Z,8.65
2023-12-15T21:08:30.752Z,6.75
2023-12-15T21:10:59.016Z,8.00
2023-12-15T21:13:27.244Z,6.38
2023-12-15T21:15:55.503Z,6.68
2023-12-15T21:18:23.778Z,7.60
2023-12-15T21:20:52.188Z,5.80
2023-12-15T21:23:21.901Z,5.90
2023-12-15T21:25:50.401Z,6.63
2023-12-15T21:28:18.696Z,6.78
2023-12-15T21:30:46.975Z,7.95
2023-12-15T21:33:15.434Z,6.97
2023-12-15T21:35:50.883Z,6.65
2023-12-15T21:38:25.597Z,6.20
2023-12-15T21:40:53.915Z,8.73
2023-12-15T21:43:22.164Z,6.88
2023-12-15T21:45:50.437Z,6.13
2023-12-15T21:48:18.827Z,7.75
2023-12-15T21:50:47.683Z,6.38
2023-12-15T21:53:16.492Z,5.60
2023-12-15T21:55:46.084Z,5.95
2023-12-15T21:58:14.341Z,5.65
2023-12-15T22:00:42.600Z,8.98
2023-12-15T22:03:10.869Z,9.30
2023-12-15T22:05:39.641Z,8.95
2023-12-15T22:08:08.408Z,7.57
2023-12-15T22:10:36.685Z,10.10
2023-12-15T22:13:08.390Z,14.77
2023-12-15T22:15:36.910Z,9.77
2023-12-15T22:18:05.546Z,12.75
2023-12-15T22:20:34.982Z,13.85
2023-12-15T22:23:02.195Z,13.70
2023-12-15T22:25:30.481Z,13.02
2023-12-15T22:27:58.951Z,10.75
2023-12-15T22:30:29.225Z,14.52
2023-12-15T22:32:57.630Z,16.77
2023-12-15T22:35:25.902Z,13.07
2023-12-15T22:37:54.539Z,17.67
2023-12-15T22:40:23.155Z,10.00
2023-12-15T22:42:51.373Z,8.73
2023-12-15T22:45:19.618Z,13.45
2023-12-15T22:47:49.272Z,10.30
2023-12-15T22:50:17.699Z,11.90
2023-12-15T22:52:45.958Z,8.20
2023-12-15T22:55:14.178Z,9.25
2023-12-15T22:57:42.640Z,11.73
2023-12-15T23:00:12.362Z,12.68
2023-12-15T23:02:40.958Z,7.93
2023-12-15T23:05:10.865Z,9.43
2023-12-15T23:07:40.668Z,12.25
2023-12-15T23:10:09.931Z,8.85
2023-12-15T23:12:38.468Z,8.82
2023-12-15T23:15:14.910Z,7.88
2023-12-15T23:17:46.896Z,8.90
2023-12-15T23:20:17.395Z,9.60
2023-12-15T23:22:46.324Z,13.63
2023-12-15T23:25:14.609Z,7.50
2023-12-15T23:27:43.190Z,7.00
2023-12-15T23:30:12.940Z,6.28
2023-12-15T23:32:41.284Z,9.05
2023-12-15T23:35:10.488Z,7.07
2023-12-15T23:37:40.478Z,7.97
2023-12-15T23:40:09.957Z,7.00
2023-12-15T23:42:38.297Z,6.28
2023-12-15T23:45:08.489Z,6.72
2023-12-15T23:47:36.861Z,9.32
2023-12-15T23:50:06.498Z,7.72
2023-12-15T23:52:34.717Z,8.40
2023-12-15T23:55:04.550Z,6.18
2023-12-15T23:57:32.810Z,7.93
